Time;durP1;ratioP1;P1;durP2;ratioP2;P2;SDS_P1;SDS_P2;PMS_P1;PMS_P2;Temp;Humidity;BMP_temperature;BMP_pressure;BME280_temperature;BME280_humidity;BME280_pressure;Samples;Min_cycle;Max_cycle;Signal;HPM_P1;HPM_P2
2021/12/01 00:02:23;;;;;;;5.97;5.47;;;;;;;8.78;100.00;100129.41;5046324;28;20036;-68
2021/12/01 00:04:49;;;;;;;5.93;5.45;;;;;;;8.76;100.00;100115.47;5050434;28;20098;-69
2021/12/01 00:07:14;;;;;;;5.97;5.45;;;;;;;8.79;100.00;100114.34;5048185;28;20056;-70
2021/12/01 00:09:39;;;;;;;5.15;4.70;;;;;;;8.78;100.00;100110.03;5030973;28;20034;-69
2021/12/01 00:12:05;;;;;;;5.85;5.35;;;;;;;8.78;100.00;100112.69;5055290;28;20035;-69
2021/12/01 00:14:30;;;;;;;6.85;4.85;;;;;;;8.77;100.00;100092.47;5043861;28;20025;-69
2021/12/01 00:16:55;;;;;;;5.90;5.40;;;;;;;8.77;100.00;100093.28;5049219;28;20029;-69
2021/12/01 00:19:20;;;;;;;5.80;5.25;;;;;;;8.76;100.00;100091.63;5065192;28;20024;-68
2021/12/01 00:21:46;;;;;;;5.25;4.85;;;;;;;8.77;100.00;100073.94;5054244;28;20102;-68
2021/12/01 00:24:11;;;;;;;4.63;4.22;;;;;;;8.78;100.00;100059.75;5068598;28;20150;-68
2021/12/01 00:26:36;;;;;;;5.07;4.57;;;;;;;8.77;100.00;100066.00;5053233;28;20117;-69
2021/12/01 00:29:03;;;;;;;6.05;4.40;;;;;;;8.76;100.00;100048.41;5048567;28;20371;-69
2021/12/01 00:31:28;;;;;;;4.90;4.40;;;;;;;8.76;100.00;100033.38;5050191;28;20435;-70
2021/12/01 00:33:54;;;;;;;4.35;3.95;;;;;;;8.77;100.00;100028.91;5049121;28;20109;-69
2021/12/01 00:36:19;;;;;;;4.93;4.45;;;;;;;8.76;100.00;100016.63;5049727;28;20375;-69
2021/12/01 00:38:45;;;;;;;4.88;4.32;;;;;;;8.76;100.00;100020.16;5050148;28;20039;-69
2021/12/01 00:41:11;;;;;;;4.60;4.20;;;;;;;8.74;100.00;100011.47;5038022;28;20021;-69
2021/12/01 00:43:39;;;;;;;6.57;4.18;;;;;;;8.74;100.00;100002.69;5050150;28;20029;-69
2021/12/01 00:46:22;;;;;;;4.63;4.10;;;;;;;8.74;100.00;100002.69;5050197;28;20070;-69
2021/12/01 00:48:47;;;;;;;4.68;4.28;;;;;;;8.75;100.00;100001.75;5047191;28;20041;-70
2021/12/01 00:51:13;;;;;;;5.20;4.57;;;;;;;8.73;100.00;100004.50;5048929;28;20458;-69
2021/12/01 00:53:38;;;;;;;5.30;4.30;;;;;;;8.73;100.00;99985.09;5050111;28;20055;-69
2021/12/01 00:56:05;;;;;;;5.72;4.65;;;;;;;8.70;100.00;99992.34;5049716;28;20362;-69
2021/12/01 00:58:30;;;;;;;6.65;4.28;;;;;;;8.70;100.00;100000.28;5048871;28;20029;-69
2021/12/01 01:00:56;;;;;;;6.85;4.30;;;;;;;8.70;100.00;99992.34;5046339;28;20045;-69
2021/12/01 01:03:21;;;;;;;4.88;4.25;;;;;;;8.68;100.00;99978.41;5049906;28;20114;-69
2021/12/01 01:05:48;;;;;;;6.13;4.45;;;;;;;8.67;100.00;99966.13;5043000;28;20041;-68
2021/12/01 01:08:15;;;;;;;5.18;4.68;;;;;;;8.68;100.00;99964.34;5050632;28;20021;-68
2021/12/01 01:18:42;;;;;;;6.50;4.93;;;;;;;8.64;100.00;99942.59;5043109;28;20063;-70
2021/12/01 01:21:09;;;;;;;8.50;5.32;;;;;;;8.64;100.00;99949.66;5069725;28;20059;-70
2021/12/01 01:23:36;;;;;;;6.07;5.50;;;;;;;8.62;100.00;99936.56;5036375;28;20041;-70
2021/12/01 01:26:04;;;;;;;6.85;6.25;;;;;;;8.61;100.00;99937.53;5055172;28;20037;-68
2021/12/01 01:28:29;;;;;;;7.47;6.78;;;;;;;8.59;100.00;99928.84;5061830;28;20029;-68
2021/12/01 01:30:55;;;;;;;7.75;6.97;;;;;;;8.59;100.00;99920.09;5049060;28;20119;-70
2021/12/01 01:33:21;;;;;;;7.53;6.80;;;;;;;8.57;100.00;99933.44;5065553;28;20028;-69
2021/12/01 01:35:47;;;;;;;7.90;7.10;;;;;;;8.55;100.00;99911.56;5069547;28;20058;-70
2021/12/01 01:38:13;;;;;;;8.52;6.75;;;;;;;8.54;100.00;99909.88;5054277;28;20032;-69
2021/12/01 01:40:39;;;;;;;8.95;6.78;;;;;;;8.50;100.00;99909.28;5055249;28;20048;-68
2021/12/01 01:43:05;;;;;;;7.75;6.97;;;;;;;8.49;100.00;99907.63;5069212;28;20097;-69
2021/12/01 01:45:31;;;;;;;8.50;7.00;;;;;;;8.47;100.00;99903.41;5054750;28;20020;-70
2021/12/01 01:48:08;;;;;;;7.13;6.22;;;;;;;8.45;100.00;99902.72;5071833;28;20036;-68
2021/12/01 01:50:37;;;;;;;7.75;6.38;;;;;;;8.45;100.00;99886.84;5068022;28;20024;-69
2021/12/01 01:53:20;;;;;;;6.55;5.95;;;;;;;8.44;100.00;99878.06;5065840;28;20036;-69
2021/12/01 01:55:48;;;;;;;6.55;5.80;;;;;;;8.43;100.00;99883.50;5066576;28;20027;-68
2021/12/01 01:58:16;;;;;;;6.60;6.03;;;;;;;8.40;100.00;99879.25;5064155;28;20112;-69
2021/12/01 02:00:52;;;;;;;8.57;6.37;;;;;;;8.38;100.00;99875.91;5039810;28;20037;-68
2021/12/01 02:03:22;;;;;;;6.18;5.68;;;;;;;8.36;100.00;99867.25;5052927;28;20025;-69
2021/12/01 02:05:49;;;;;;;6.07;5.43;;;;;;;8.33;100.00;99864.84;5047504;28;20144;-69
2021/12/01 02:08:17;;;;;;;5.38;4.90;;;;;;;8.33;100.00;99851.63;5071871;28;20051;-69
2021/12/01 02:10:46;;;;;;;5.28;4.88;;;;;;;8.32;100.00;99849.94;5056763;28;20542;-69
2021/12/01 02:13:12;;;;;;;5.38;4.97;;;;;;;8.30;100.00;99838.66;5064036;28;20013;-70
2021/12/01 02:15:37;;;;;;;5.53;5.05;;;;;;;8.29;100.00;99827.25;5061221;28;20040;-70
2021/12/01 02:18:03;;;;;;;4.70;4.40;;;;;;;8.29;100.00;99835.16;5071448;28;20017;-67
2021/12/01 02:20:28;;;;;;;5.05;4.55;;;;;;;8.27;100.00;99817.75;5059538;28;20036;-70
2021/12/01 02:22:53;;;;;;;4.35;4.05;;;;;;;8.26;100.00;99830.13;5038455;28;20031;-69
2021/12/01 02:25:24;;;;;;;5.13;4.28;;;;;;;8.23;100.00;99806.56;5065027;28;20387;-69
2021/12/01 02:27:49;;;;;;;4.13;3.83;;;;;;;8.23;100.00;99797.81;5065678;28;20391;-69
2021/12/01 02:30:14;;;;;;;6.93;3.60;;;;;;;8.22;99.95;99796.13;5053176;28;20021;-68
2021/12/01 02:32:40;;;;;;;3.80;3.50;;;;;;;8.19;100.00;99799.84;5070685;28;20024;-70
2021/12/01 02:35:05;;;;;;;6.40;3.53;;;;;;;8.18;99.74;99784.97;5044863;28;20039;-69
2021/12/01 02:37:31;;;;;;;3.88;3.05;;;;;;;8.16;99.46;99776.31;5058802;28;20024;-69
2021/12/01 02:39:57;;;;;;;4.05;3.47;;;;;;;8.15;99.71;99769.34;5072098;28;20074;-69
2021/12/01 02:42:22;;;;;;;3.63;3.13;;;;;;;8.14;99.63;99762.38;5061298;28;20032;-69
2021/12/01 02:44:48;;;;;;;3.85;3.35;;;;;;;8.15;98.96;99761.41;5066187;28;20078;-69
2021/12/01 02:47:13;;;;;;;3.35;3.13;;;;;;;8.12;99.14;99753.72;5071981;28;20042;-69
2021/12/01 02:49:39;;;;;;;4.57;3.10;;;;;;;8.11;99.03;99744.97;5047859;28;20387;-70
2021/12/01 02:52:05;;;;;;;4.35;3.17;;;;;;;8.06;99.19;99739.22;5067861;28;20539;-69
2021/12/01 02:54:32;;;;;;;5.35;3.80;;;;;;;8.05;99.08;99740.19;5069636;28;20540;-70
2021/12/01 02:56:58;;;;;;;3.65;3.35;;;;;;;8.05;99.08;99726.97;5047027;28;20064;-70
2021/12/01 02:59:24;;;;;;;4.07;3.78;;;;;;;8.01;99.11;99736.13;5070508;28;20032;-70
2021/12/01 03:01:50;;;;;;;4.18;3.65;;;;;;;8.01;99.03;99720.25;5071780;28;20021;-69
2021/12/01 03:04:16;;;;;;;4.07;3.65;;;;;;;8.01;98.51;99724.69;5064976;28;20021;-69
2021/12/01 03:06:45;;;;;;;5.10;4.30;;;;;;;7.98;98.73;99704.66;5051293;28;20419;-69
2021/12/01 03:09:12;;;;;;;4.77;4.37;;;;;;;7.96;98.71;99686.28;5066997;28;20059;-68
2021/12/01 03:11:37;;;;;;;4.45;4.13;;;;;;;7.96;98.27;99703.94;5062872;28;20017;-69
2021/12/01 03:14:08;;;;;;;4.53;4.13;;;;;;;7.98;98.05;99704.66;5051536;28;20375;-71
2021/12/01 03:16:35;;;;;;;5.22;4.60;;;;;;;7.94;98.28;99682.94;5043915;28;20028;-72
2021/12/01 03:19:00;;;;;;;5.00;4.50;;;;;;;7.94;97.86;99685.56;5067162;28;20041;-71
2021/12/01 03:21:25;;;;;;;4.95;4.43;;;;;;;7.92;97.70;99679.53;5068039;28;20063;-71
2021/12/01 03:23:50;;;;;;;6.55;4.15;;;;;;;7.91;97.76;99672.59;5071245;28;20394;-71
2021/12/01 03:26:16;;;;;;;5.40;4.40;;;;;;;7.91;97.23;99659.38;5057267;28;20032;-71
2021/12/01 03:28:41;;;;;;;4.78;4.38;;;;;;;7.92;97.39;99673.44;5048330;28;20114;-70
2021/12/01 03:31:08;;;;;;;4.95;4.53;;;;;;;7.92;96.93;99653.13;5066058;28;20032;-71
2021/12/01 03:33:33;;;;;;;4.78;4.28;;;;;;;7.91;97.31;99658.53;5058761;28;20037;-72
2021/12/01 03:35:59;;;;;;;4.78;4.38;;;;;;;7.90;96.91;99648.94;5066294;28;20039;-71
2021/12/01 03:38:27;;;;;;;5.05;4.50;;;;;;;7.87;97.09;99626.22;5073916;28;20051;-71
2021/12/01 03:40:54;;;;;;;4.85;4.35;;;;;;;7.90;96.83;99627.78;5063048;28;20102;-71
2021/12/01 03:43:19;;;;;;;5.35;4.35;;;;;;;7.88;96.71;99617.34;5065964;28;20030;-71
2021/12/01 03:45:44;;;;;;;4.75;4.30;;;;;;;7.87;96.35;99620.94;5057515;28;20111;-70
2021/12/01 03:48:11;;;;;;;5.13;4.47;;;;;;;7.84;96.80;99618.56;5056869;28;20036;-70
2021/12/01 03:50:37;;;;;;;5.75;4.43;;;;;;;7.83;97.09;99616.03;5067966;28;20401;-70
2021/12/01 03:53:03;;;;;;;4.45;4.03;;;;;;;7.82;96.85;99598.53;5050633;28;20068;-72
2021/12/01 03:55:28;;;;;;;4.30;3.90;;;;;;;7.81;96.93;99583.63;5050932;28;20056;-70
2021/12/01 03:57:54;;;;;;;5.10;4.60;;;;;;;7.78;96.80;99575.00;5033888;28;20029;-72
2021/12/01 04:00:19;;;;;;;4.78;4.38;;;;;;;7.75;97.02;99562.03;5031013;28;20037;-71
2021/12/01 04:02:45;;;;;;;5.57;4.60;;;;;;;7.74;97.20;99539.22;5031044;28;20525;-70
2021/12/01 04:05:12;;;;;;;5.53;4.85;;;;;;;7.73;96.80;99537.53;5031010;28;20496;-70
2021/12/01 04:07:39;;;;;;;5.70;5.20;;;;;;;7.75;96.18;99534.78;5030266;28;20115;-69
2021/12/01 04:10:06;;;;;;;5.68;5.03;;;;;;;7.74;96.30;99533.94;5031022;28;20033;-71
2021/12/01 04:12:33;;;;;;;5.82;5.20;;;;;;;7.73;96.52;99532.25;5031852;28;20079;-72
2021/12/01 04:14:58;;;;;;;5.57;5.00;;;;;;;7.70;96.64;99529.88;5058081;28;20025;-69
2021/12/01 04:17:24;;;;;;;5.22;4.75;;;;;;;7.71;96.59;99520.13;5057534;28;20040;-69
2021/12/01 04:19:49;;;;;;;5.70;4.90;;;;;;;7.68;96.64;99523.88;5067625;28;20481;-71
2021/12/01 04:22:15;;;;;;;5.22;4.35;;;;;;;7.68;96.07;99515.13;5070440;28;20051;-70
2021/12/01 04:24:40;;;;;;;5.03;4.63;;;;;;;7.67;96.48;99513.44;5056524;28;20510;-70
2021/12/01 04:27:06;;;;;;;5.22;4.30;;;;;;;7.65;96.70;99513.56;5070726;28;20033;-71
2021/12/01 04:29:31;;;;;;;5.57;4.05;;;;;;;7.65;96.15;99486.31;5060926;28;20123;-70
2021/12/01 04:31:56;;;;;;;5.18;3.83;;;;;;;7.65;95.67;99496.91;5067192;28;20086;-69
2021/12/01 04:34:22;;;;;;;4.03;3.63;;;;;;;7.62;95.77;99476.00;5066917;28;20439;-70
2021/12/01 04:36:49;;;;;;;4.32;3.83;;;;;;;7.62;95.78;99482.13;5070288;28;20036;-70
2021/12/01 04:39:16;;;;;;;5.35;3.90;;;;;;;7.59;95.97;99459.47;5062916;28;20143;-69
2021/12/01 04:41:51;;;;;;;5.20;3.58;;;;;;;7.59;95.66;99456.81;5038416;28;20029;-68
2021/12/01 04:44:19;;;;;;;4.10;3.35;;;;;;;7.59;95.49;99450.69;5037531;28;20056;-70
2021/12/01 04:46:46;;;;;;;4.90;3.20;;;;;;;7.58;95.18;99428.72;5063807;28;20079;-69
2021/12/01 04:49:16;;;;;;;3.53;3.22;;;;;;;7.54;95.32;99435.25;5070246;28;20052;-72
2021/12/01 04:51:43;;;;;;;5.10;3.10;;;;;;;7.55;95.39;99423.69;5065151;28;20067;-71
2021/12/01 04:54:09;;;;;;;5.25;3.63;;;;;;;7.55;95.35;99426.34;5070832;28;20097;-70
2021/12/01 04:56:36;;;;;;;3.58;3.28;;;;;;;7.56;95.41;99420.09;5061244;28;20029;-71
2021/12/01 04:59:04;;;;;;;3.38;3.08;;;;;;;7.52;95.89;99417.84;5067247;28;20033;-71
2021/12/01 05:01:29;;;;;;;3.97;3.45;;;;;;;7.47;96.50;99410.31;5058501;28;20115;-69
2021/12/01 05:03:54;;;;;;;5.10;3.58;;;;;;;7.45;96.87;99408.78;5055451;28;20039;-69
2021/12/01 05:06:20;;;;;;;3.55;3.25;;;;;;;7.43;96.72;99406.28;5046911;28;20098;-69
2021/12/01 05:08:46;;;;;;;3.65;3.30;;;;;;;7.40;96.89;99388.88;5070348;28;20025;-69
2021/12/01 05:11:11;;;;;;;3.20;2.90;;;;;;;7.41;96.67;99406.41;5049923;28;20471;-70
2021/12/01 05:13:37;;;;;;;5.50;3.13;;;;;;;7.37;97.36;99397.06;5059984;28;20032;-69
2021/12/01 05:16:02;;;;;;;3.80;3.10;;;;;;;7.34;97.32;99368.25;5065909;28;20494;-70
2021/12/01 05:18:28;;;;;;;3.15;2.85;;;;;;;7.33;97.62;99376.34;5056503;28;20050;-68
2021/12/01 05:20:53;;;;;;;3.35;2.75;;;;;;;7.32;97.49;99377.31;5066014;28;20025;-70
2021/12/01 05:23:18;;;;;;;3.38;2.80;;;;;;;7.30;98.05;99360.75;5058251;28;20111;-70
2021/12/01 05:25:45;;;;;;;2.88;2.60;;;;;;;7.28;97.88;99365.31;5073972;28;20035;-70
2021/12/01 05:28:11;;;;;;;3.40;2.60;;;;;;;7.26;97.83;99357.56;5045492;28;20029;-70
2021/12/01 05:30:36;;;;;;;2.60;2.40;;;;;;;7.23;98.33;99360.47;5064096;28;20040;-69
2021/12/01 05:33:06;;;;;;;2.55;2.35;;;;;;;7.26;97.95;99367.25;5066037;28;20077;-71
2021/12/01 05:35:33;;;;;;;2.92;2.30;;;;;;;7.21;98.39;99351.81;5053598;28;20033;-69
2021/12/01 05:38:01;;;;;;;2.25;2.05;;;;;;;7.20;98.23;99363.34;5046459;28;20108;-71
2021/12/01 05:40:26;;;;;;;2.20;2.00;;;;;;;7.19;98.47;99357.25;5059134;28;20043;-70
2021/12/01 05:42:52;;;;;;;2.70;2.38;;;;;;;7.17;98.81;99348.59;5067644;28;20028;-70
2021/12/01 05:45:21;;;;;;;2.22;2.03;;;;;;;7.16;98.78;99338.16;5073768;28;20032;-69
2021/12/01 05:47:47;;;;;;;2.03;1.92;;;;;;;7.18;98.66;99325.69;5040424;28;20021;-68
2021/12/01 05:50:12;;;;;;;1.80;1.70;;;;;;;7.17;98.44;99331.94;5063544;28;20516;-70
2021/12/01 05:52:38;;;;;;;1.80;1.70;;;;;;;7.17;98.86;99334.56;5064962;28;20047;-70
2021/12/01 05:55:05;;;;;;;2.05;1.80;;;;;;;7.14;99.03;99330.38;5072203;28;20028;-68
2021/12/01 05:57:30;;;;;;;1.90;1.80;;;;;;;7.14;99.00;99317.19;5068832;28;20090;-69
2021/12/01 05:59:56;;;;;;;1.90;1.80;;;;;;;7.12;99.27;99315.66;5069786;28;20504;-70
2021/12/01 06:02:21;;;;;;;1.83;1.73;;;;;;;7.13;99.42;99325.25;5072691;28;20025;-68
2021/12/01 06:04:48;;;;;;;1.98;1.88;;;;;;;7.12;99.43;99298.00;5056826;28;20044;-69
2021/12/01 06:07:13;;;;;;;1.88;1.77;;;;;;;7.12;99.57;99290.06;5072522;28;20048;-69
2021/12/01 06:09:39;;;;;;;2.00;1.90;;;;;;;7.13;99.50;99278.56;5060889;28;20515;-69
2021/12/01 06:12:04;;;;;;;1.88;1.77;;;;;;;7.11;99.53;99277.00;5062978;28;20229;-70
2021/12/01 06:14:30;;;;;;;1.88;1.60;;;;;;;7.12;99.39;99262.84;5056793;28;20028;-68
2021/12/01 06:16:56;;;;;;;1.80;1.70;;;;;;;7.11;99.54;99256.75;5071670;28;20017;-69
2021/12/01 06:19:21;;;;;;;2.42;2.28;;;;;;;7.12;99.48;99260.22;5047092;28;20033;-68
2021/12/01 06:21:47;;;;;;;1.88;1.77;;;;;;;7.12;99.84;99252.28;5071838;28;20114;-69
2021/12/01 06:24:12;;;;;;;2.30;2.10;;;;;;;7.12;99.70;99242.56;5072144;28;20032;-71
2021/12/01 06:26:37;;;;;;;1.88;1.77;;;;;;;7.11;99.56;99246.19;5058060;28;20032;-70
2021/12/01 06:29:04;;;;;;;2.63;2.42;;;;;;;7.12;99.73;99250.47;5055533;28;20044;-70
2021/12/01 06:31:29;;;;;;;2.50;1.90;;;;;;;7.11;99.99;99245.31;5050635;28;20033;-70
2021/12/01 06:33:54;;;;;;;1.98;1.88;;;;;;;7.14;99.84;99239.78;5051868;28;20052;-70
2021/12/01 06:36:20;;;;;;;2.35;2.20;;;;;;;7.14;99.80;99231.84;5059261;28;20120;-68
2021/12/01 06:38:45;;;;;;;2.63;1.90;;;;;;;7.14;100.00;99240.59;5072093;28;20470;-68
2021/12/01 06:41:11;;;;;;;2.10;1.98;;;;;;;7.16;99.97;99237.84;5072492;28;20525;-68
2021/12/01 06:43:37;;;;;;;2.53;2.20;;;;;;;7.15;100.00;99222.97;5062112;28;20036;-68
2021/12/01 06:46:02;;;;;;;1.92;1.83;;;;;;;7.15;100.00;99204.50;5072480;28;20078;-69
2021/12/01 06:48:27;;;;;;;1.80;1.70;;;;;;;7.17;100.00;99221.03;5066879;28;20127;-70
2021/12/01 06:50:53;;;;;;;3.72;2.10;;;;;;;7.17;100.00;99197.28;5067552;28;20495;-70
2021/12/01 06:53:18;;;;;;;2.63;2.10;;;;;;;7.19;100.00;99205.88;5058388;28;20049;-70
2021/12/01 06:55:43;;;;;;;2.35;2.17;;;;;;;7.22;100.00;99209.06;5052866;28;20048;-69
2021/12/01 06:58:09;;;;;;;3.25;2.50;;;;;;;7.23;100.00;99204.66;5039082;28;20128;-69
2021/12/01 07:00:34;;;;;;;2.40;2.30;;;;;;;7.22;100.00;99201.16;5046658;28;20025;-69
2021/12/01 07:03:00;;;;;;;2.30;2.20;;;;;;;7.25;100.00;99188.69;5071352;28;20435;-70
2021/12/01 07:05:25;;;;;;;3.08;2.70;;;;;;;7.23;100.00;99197.56;5043633;28;20503;-70
2021/12/01 07:07:50;;;;;;;2.85;2.65;;;;;;;7.26;100.00;99187.69;5038238;28;20048;-70
2021/12/01 07:10:16;;;;;;;2.90;2.60;;;;;;;7.27;100.00;99192.84;5044250;28;20110;-69
2021/12/01 07:12:42;;;;;;;3.13;2.83;;;;;;;7.27;100.00;99194.66;5041696;28;20025;-69
2021/12/01 07:15:09;;;;;;;4.78;3.00;;;;;;;7.27;100.00;99177.00;5036231;28;20632;-68
2021/12/01 07:17:35;;;;;;;5.43;3.45;;;;;;;7.30;100.00;99186.47;5035677;28;20114;-69
2021/12/01 07:20:00;;;;;;;3.67;3.25;;;;;;;7.31;100.00;99175.75;5036469;28;20041;-69
2021/12/01 07:22:26;;;;;;;3.70;3.40;;;;;;;7.31;100.00;99177.53;5033078;28;20033;-68
2021/12/01 07:24:51;;;;;;;3.40;3.10;;;;;;;7.35;100.00;99192.16;5042116;28;20567;-68
2021/12/01 07:27:16;;;;;;;3.33;3.13;;;;;;;7.36;100.00;99180.59;5033992;28;20051;-67
2021/12/01 07:29:42;;;;;;;3.67;3.38;;;;;;;7.35;100.00;99176.31;5038151;28;20052;-68
2021/12/01 07:32:09;;;;;;;4.05;3.65;;;;;;;7.37;100.00;99184.94;5036699;28;20025;-67
2021/12/01 07:34:41;;;;;;;4.22;3.67;;;;;;;7.40;100.00;99187.28;5031993;28;20041;-67
2021/12/01 07:37:09;;;;;;;3.90;3.60;;;;;;;7.39;100.00;99178.53;5032836;28;20048;-67
2021/12/01 07:39:34;;;;;;;5.20;3.78;;;;;;;7.40;100.00;99177.56;5032807;28;20029;-67
2021/12/01 07:41:59;;;;;;;4.28;3.90;;;;;;;7.43;100.00;99179.09;5039755;28;20419;-68
2021/12/01 07:44:25;;;;;;;3.92;3.63;;;;;;;7.45;100.00;99177.16;5037075;28;20088;-68
2021/12/01 07:46:50;;;;;;;5.20;4.18;;;;;;;7.44;100.00;99180.75;5035111;28;20447;-67
2021/12/01 07:49:15;;;;;;;3.80;3.47;;;;;;;7.45;100.00;99173.69;5038664;28;20047;-67
2021/12/01 07:51:41;;;;;;;4.00;3.70;;;;;;;7.48;100.00;99170.75;5043697;28;20045;-68
2021/12/01 07:54:06;;;;;;;4.55;3.88;;;;;;;7.49;100.00;99161.84;5041867;28;20017;-68
2021/12/01 07:56:32;;;;;;;3.88;3.58;;;;;;;7.50;100.00;99156.44;5035656;28;20052;-68
2021/12/01 07:58:57;;;;;;;4.00;3.70;;;;;;;7.51;100.00;99150.19;5038845;28;20025;-68
2021/12/01 08:01:23;;;;;;;3.60;3.40;;;;;;;7.52;100.00;99153.66;5035739;28;20052;-68
2021/12/01 08:03:48;;;;;;;5.68;3.55;;;;;;;7.52;100.00;99145.72;5034421;28;20037;-69
2021/12/01 08:06:13;;;;;;;4.18;3.58;;;;;;;7.52;100.00;99132.50;5041453;28;20071;-69
2021/12/01 08:08:38;;;;;;;4.13;3.70;;;;;;;7.53;100.00;99145.59;5047701;28;20029;-69
2021/12/01 08:11:04;;;;;;;3.90;3.70;;;;;;;7.54;100.00;99141.97;5049712;28;20395;-69
2021/12/01 08:13:29;;;;;;;3.63;3.30;;;;;;;7.57;100.00;99132.94;5034076;28;20032;-70
2021/12/01 08:15:54;;;;;;;4.22;3.90;;;;;;;7.57;100.00;99136.38;5034588;28;20106;-70
2021/12/01 08:18:20;;;;;;;5.20;4.15;;;;;;;7.59;100.00;99137.09;5039164;28;20041;-70
2021/12/01 08:20:45;;;;;;;4.47;4.07;;;;;;;7.62;100.00;99143.06;5036915;28;20116;-70
2021/12/01 08:23:10;;;;;;;4.18;3.85;;;;;;;7.64;100.00;99126.09;5039254;28;20017;-69
2021/12/01 08:25:37;;;;;;;5.10;4.63;;;;;;;7.64;100.00;99139.31;5031853;28;20108;-70
2021/12/01 08:28:02;;;;;;;6.93;4.40;;;;;;;7.66;100.00;99126.81;5045541;28;20029;-67
2021/12/01 08:30:29;;;;;;;5.97;4.50;;;;;;;7.67;100.00;99139.03;5044256;28;20549;-69
2021/12/01 08:32:54;;;;;;;4.50;4.10;;;;;;;7.68;100.00;99134.59;5037264;28;20112;-67
2021/12/01 08:35:20;;;;;;;4.90;4.50;;;;;;;7.68;100.00;99127.50;5042145;28;20472;-68
2021/12/01 08:37:45;;;;;;;4.93;4.25;;;;;;;7.69;100.00;99117.75;5037861;28;20029;-67
2021/12/01 08:40:14;;;;;;;4.32;4.03;;;;;;;7.69;100.00;99110.66;5041170;28;20021;-69
2021/12/01 08:42:39;;;;;;;4.00;3.70;;;;;;;7.74;100.00;99120.81;5045717;28;20032;-68
2021/12/01 08:45:05;;;;;;;4.25;3.60;;;;;;;7.76;100.00;99108.28;5058381;28;20773;-68
2021/12/01 08:47:31;;;;;;;4.07;3.67;;;;;;;7.78;100.00;99107.16;5046153;28;20031;-69
2021/12/01 08:49:57;;;;;;;3.78;3.40;;;;;;;7.81;100.00;99111.34;5048571;28;20571;-70
2021/12/01 08:52:23;;;;;;;4.10;3.80;;;;;;;7.85;100.00;99107.44;5041897;28;20021;-70
2021/12/01 08:54:49;;;;;;;5.10;3.70;;;;;;;7.88;100.00;99115.06;5051935;28;20028;-70
2021/12/01 08:57:14;;;;;;;3.78;3.47;;;;;;;7.92;100.00;99111.16;5059328;28;20049;-68
2021/12/01 08:59:40;;;;;;;5.32;3.85;;;;;;;7.95;100.00;99110.88;5056750;28;20093;-69
2021/12/01 09:02:06;;;;;;;3.47;3.17;;;;;;;8.00;100.00;99106.97;5057957;28;20037;-69
2021/12/01 09:04:31;;;;;;;2.97;2.70;;;;;;;8.02;100.00;99113.78;5052377;28;20033;-68
2021/12/01 09:06:57;;;;;;;4.07;2.72;;;;;;;8.05;99.94;99107.38;5063371;28;20447;-69
2021/12/01 09:09:22;;;;;;;2.53;2.38;;;;;;;8.05;99.41;99113.50;5056239;28;20033;-70
2021/12/01 09:11:50;;;;;;;2.90;2.70;;;;;;;8.03;98.67;99109.34;5035552;28;20073;-69
2021/12/01 09:14:17;;;;;;;2.70;2.25;;;;;;;8.06;98.86;99116.97;5036640;28;20049;-69
2021/12/01 09:16:45;;;;;;;2.08;1.98;;;;;;;8.05;98.78;99112.66;5042506;28;20415;-69
2021/12/01 09:19:10;;;;;;;2.55;2.15;;;;;;;8.04;98.43;99119.75;5037168;28;20033;-69
2021/12/01 09:21:36;;;;;;;2.00;1.90;;;;;;;8.04;98.55;99116.28;5041040;28;20111;-69
2021/12/01 09:24:02;;;;;;;2.28;2.10;;;;;;;8.04;98.54;99116.28;5041489;28;20024;-69
2021/12/01 09:26:27;;;;;;;3.13;2.30;;;;;;;8.03;98.62;99109.34;5048147;28;20056;-68
2021/12/01 09:28:53;;;;;;;2.58;2.38;;;;;;;8.03;98.93;99112.00;5049824;28;20025;-67
2021/12/01 09:31:18;;;;;;;3.00;2.38;;;;;;;8.02;98.92;99140.22;5049303;28;20068;-67
2021/12/01 09:33:44;;;;;;;2.50;2.30;;;;;;;7.99;99.16;99129.09;5054488;28;20498;-67
2021/12/01 09:36:09;;;;;;;3.13;2.50;;;;;;;7.99;99.09;99131.75;5047076;28;20029;-67
2021/12/01 09:38:34;;;;;;;2.92;2.63;;;;;;;7.97;98.89;99143.28;5056327;28;20497;-66
2021/12/01 09:41:00;;;;;;;2.58;2.30;;;;;;;7.96;98.11;99144.28;5064960;28;20040;-65
2021/12/01 09:43:28;;;;;;;4.68;2.67;;;;;;;7.93;97.86;99141.91;5061707;28;20063;-66
2021/12/01 09:45:55;;;;;;;4.60;2.60;;;;;;;7.90;97.60;99158.06;5058110;28;20086;-66
2021/12/01 09:48:20;;;;;;;3.85;2.70;;;;;;;7.89;97.48;99145.84;5060487;28;20520;-66
2021/12/01 09:50:46;;;;;;;4.63;2.67;;;;;;;7.86;97.27;99142.63;5055927;28;20048;-66
2021/12/01 09:53:11;;;;;;;5.85;2.70;;;;;;;7.85;97.43;99148.91;5055701;28;20017;-66
2021/12/01 09:55:37;;;;;;;6.47;2.70;;;;;;;7.83;97.31;99150.81;5057584;28;20025;-66
2021/12/01 09:58:06;;;;;;;6.85;2.83;;;;;;;7.81;97.13;99145.72;5059647;28;20035;-67
2021/12/01 10:00:33;;;;;;;;;;;;;;;7.88;97.32;99153.91;5053670;28;20368;-67
2021/12/01 10:02:58;;;;;;;8.70;2.63;;;;;;;7.81;97.35;99143.06;5019439;28;20052;-66
2021/12/01 10:05:51;;;;;;;7.32;2.90;;;;;;;7.83;96.73;99149.03;5039888;28;20060;-66
2021/12/01 10:08:26;;;;;;;7.53;2.38;;;;;;;7.79;96.25;99147.63;5042700;28;20098;-66
2021/12/01 10:10:53;;;;;;;7.50;2.40;;;;;;;7.76;95.61;99147.91;5043901;28;20044;-66
2021/12/01 10:13:32;;;;;;;10.15;2.30;;;;;;;7.76;95.69;99145.25;5050610;28;20434;-66
2021/12/01 10:15:59;;;;;;;;;;;;;;;7.82;96.33;99146.53;5044309;28;20076;-67
2021/12/01 10:18:25;;;;;;;11.05;3.00;;;;;;;7.75;95.72;99144.44;5051814;28;19963;-66
2021/12/01 10:21:03;;;;;;;8.95;2.15;;;;;;;7.75;95.74;99136.50;5055786;28;20025;-66
2021/12/01 10:23:28;;;;;;;10.15;2.40;;;;;;;7.74;94.97;99129.59;5057468;28;20365;-66
2021/12/01 10:25:54;;;;;;;11.50;2.50;;;;;;;7.77;95.02;99141.66;5052891;28;20028;-66
2021/12/01 10:28:38;;;;;;;9.55;2.35;;;;;;;7.77;94.84;99139.03;5058773;28;20030;-67
2021/12/01 10:31:04;;;;;;;9.05;2.17;;;;;;;7.77;93.88;99147.78;5052558;28;20029;-67
2021/12/01 10:33:29;;;;;;;10.93;2.42;;;;;;;7.78;92.87;99143.34;5067894;28;20078;-67
2021/12/01 10:35:58;;;;;;;13.15;2.38;;;;;;;7.80;92.56;99144.03;5050538;28;20170;-67
2021/12/01 10:38:37;;;;;;;9.95;2.67;;;;;;;7.79;92.04;99145.00;5069049;28;20024;-67
2021/12/01 10:41:10;;;;;;;9.97;2.40;;;;;;;7.79;92.36;99139.69;5065103;28;20064;-67
2021/12/01 10:43:47;;;;;;;8.57;1.73;;;;;;;7.78;90.73;99135.41;5060279;28;20024;-67
2021/12/01 10:46:18;;;;;;;8.57;1.90;;;;;;;7.82;91.99;99139.44;5048883;28;20033;-67
2021/12/01 10:48:58;;;;;;;6.60;1.77;;;;;;;7.84;91.01;99126.91;5067451;28;20028;-67
2021/12/01 10:51:33;;;;;;;6.85;2.20;;;;;;;7.87;91.12;99137.19;5067044;28;20044;-68
2021/12/01 10:53:58;;;;;;;9.18;1.77;;;;;;;7.87;89.32;99120.50;5060530;28;20095;-67
2021/12/01 10:56:24;;;;;;;6.28;1.40;;;;;;;7.86;88.63;99119.69;5059112;28;20028;-68
2021/12/01 10:58:49;;;;;;;4.60;1.45;;;;;;;7.85;87.48;99123.28;5052028;28;20025;-68
2021/12/01 11:01:20;;;;;;;10.32;1.83;;;;;;;7.86;88.49;99118.81;5051472;28;20410;-68
2021/12/01 11:03:45;;;;;;;5.65;1.55;;;;;;;7.87;89.47;99129.25;5051475;28;20032;-68
2021/12/01 11:06:23;;;;;;;6.03;1.55;;;;;;;7.90;90.02;99130.78;5059314;28;20048;-68
2021/12/01 11:08:58;;;;;;;7.82;1.75;;;;;;;7.89;90.04;99137.91;5032362;28;20516;-69
2021/12/01 11:11:34;;;;;;;6.30;1.63;;;;;;;7.88;90.04;99138.88;5047647;28;20448;-68
2021/12/01 11:14:10;;;;;;;8.05;2.00;;;;;;;7.88;89.89;99141.50;5051642;28;20025;-69
2021/12/01 11:16:37;;;;;;;6.57;1.50;;;;;;;7.88;89.74;99152.09;5054175;28;20039;-68
2021/12/01 11:19:03;;;;;;;6.22;1.73;;;;;;;7.84;89.18;99153.31;5071125;28;20355;-68
2021/12/01 11:21:28;;;;;;;3.95;1.40;;;;;;;7.82;88.87;99159.75;5070981;28;20024;-69
2021/12/01 11:24:13;;;;;;;7.45;1.50;;;;;;;7.84;89.86;99149.84;5060847;28;20032;-69
2021/12/01 11:26:44;;;;;;;4.88;1.50;;;;;;;7.81;88.20;99152.78;5051715;28;20049;-69
2021/12/01 11:29:12;;;;;;;6.32;1.52;;;;;;;7.78;88.78;99161.84;5048357;28;20033;-69
2021/12/01 11:31:44;;;;;;;7.43;1.77;;;;;;;7.77;88.60;99165.44;5051361;28;20086;-70
2021/12/01 11:34:13;;;;;;;6.68;1.70;;;;;;;7.75;89.18;99147.09;5059981;28;20615;-69
2021/12/01 11:36:45;;;;;;;7.38;1.85;;;;;;;7.75;88.15;99143.63;5048007;28;20387;-70
2021/12/01 11:39:13;;;;;;;8.07;1.40;;;;;;;7.74;87.42;99152.50;5042894;28;20494;-70
2021/12/01 11:41:44;;;;;;;8.68;2.08;;;;;;;7.73;87.43;99137.66;5038352;28;20135;-70
2021/12/01 11:44:11;;;;;;;9.10;1.80;;;;;;;7.74;87.75;99145.44;5040504;28;20532;-70
2021/12/01 11:46:37;;;;;;;8.20;2.17;;;;;;;7.75;88.13;99133.03;5046290;28;20098;-70